createdAt,value
2018-08-30T00:01:30.430Z,80.94
2018-08-30T00:03:58.908Z,79.55
2018-08-30T00:06:27.000Z,79.45
2018-08-30T00:08:55.119Z,79.14
2018-08-30T00:11:23.198Z,80.40
2018-08-30T00:13:51.421Z,78.98
2018-08-30T00:16:19.942Z,79.87
2018-08-30T00:18:48.119Z,79.61
2018-08-30T00:21:16.275Z,78.93
2018-08-30T00:23:44.567Z,79.32
2018-08-30T00:26:13.559Z,79.88
2018-08-30T00:28:41.649Z,80.39
2018-08-30T00:31:09.821Z,79.97
2018-08-30T00:33:39.106Z,79.77
2018-08-30T00:36:07.235Z,79.64
2018-08-30T00:38:35.335Z,80.69
2018-08-30T00:41:03.503Z,81.10
2018-08-30T00:43:31.652Z,81.46
2018-08-30T00:45:59.801Z,81.11
2018-08-30T00:48:27.956Z,82.05
2018-08-30T00:50:56.068Z,81.90
2018-08-30T00:53:24.160Z,81.60
2018-08-30T00:55:52.265Z,82.30
2018-08-30T00:58:20.407Z,81.73
2018-08-30T01:00:48.562Z,81.71
2018-08-30T01:03:17.037Z,81.85
2018-08-30T01:05:45.150Z,80.98
2018-08-30T01:08:13.272Z,80.62
2018-08-30T01:10:41.411Z,80.76
2018-08-30T01:13:09.805Z,81.45
2018-08-30T01:15:37.949Z,81.58
2018-08-30T01:18:06.117Z,80.43
2018-08-30T01:20:34.261Z,81.01
2018-08-30T01:23:02.396Z,80.63
2018-08-30T01:25:30.784Z,81.03
2018-08-30T01:27:58.950Z,80.73
2018-08-30T01:30:27.104Z,80.39
2018-08-30T01:32:55.259Z,81.21
2018-08-30T01:35:23.419Z,79.80
2018-08-30T01:37:51.537Z,80.32
2018-08-30T01:40:19.665Z,80.80
2018-08-30T01:42:47.808Z,80.85
2018-08-30T01:45:15.918Z,81.01
2018-08-30T01:47:44.080Z,82.97
2018-08-30T01:50:12.271Z,82.95
2018-08-30T01:52:40.387Z,83.73
2018-08-30T01:55:08.515Z,83.02
2018-08-30T01:57:36.632Z,83.08
2018-08-30T02:00:04.910Z,84.55
2018-08-30T02:02:33.052Z,84.77
2018-08-30T02:05:01.208Z,85.14
2018-08-30T02:07:29.384Z,84.09
2018-08-30T02:09:57.621Z,86.28
2018-08-30T02:12:25.757Z,84.76
2018-08-30T02:14:53.877Z,86.08
2018-08-30T02:17:22.026Z,86.45
2018-08-30T02:19:50.157Z,86.02
2018-08-30T02:22:18.387Z,85.95
2018-08-30T02:24:46.565Z,85.77
2018-08-30T02:27:14.664Z,85.96
2018-08-30T02:29:42.765Z,86.05
2018-08-30T02:32:10.917Z,86.91
2018-08-30T02:34:39.100Z,86.98
2018-08-30T02:37:07.220Z,86.86
2018-08-30T02:39:35.425Z,87.49
2018-08-30T02:42:03.552Z,86.99
2018-08-30T02:44:31.750Z,87.24
2018-08-30T02:46:59.861Z,86.55
2018-08-30T02:49:28.060Z,87.16
2018-08-30T02:51:56.257Z,87.28
2018-08-30T02:54:24.469Z,87.32
2018-08-30T02:56:52.613Z,87.51
2018-08-30T02:59:20.717Z,88.13
2018-08-30T03:01:48.885Z,88.39
2018-08-30T03:04:17.049Z,88.70
2018-08-30T03:06:51.520Z,88.53
2018-08-30T03:09:19.747Z,89.09
2018-08-30T03:11:47.886Z,89.12
2018-08-30T03:14:16.046Z,89.21
2018-08-30T03:16:44.206Z,89.68
2018-08-30T03:19:12.377Z,88.79
2018-08-30T03:21:40.516Z,89.77
2018-08-30T03:24:08.676Z,90.32
2018-08-30T03:26:36.787Z,91.61
2018-08-30T03:29:05.508Z,92.37
2018-08-30T03:31:33.904Z,92.76
2018-08-30T03:34:02.056Z,93.17
2018-08-30T03:36:30.180Z,92.98
2018-08-30T03:38:58.328Z,93.32
2018-08-30T03:41:26.422Z,94.30
2018-08-30T03:43:54.579Z,95.28
2018-08-30T03:46:22.743Z,95.67
2018-08-30T03:48:50.835Z,96.33
2018-08-30T03:51:18.974Z,96.80
2018-08-30T03:53:47.121Z,97.34
2018-08-30T03:56:15.254Z,97.79
2018-08-30T03:58:43.384Z,98.87
2018-08-30T04:01:11.605Z,98.84
2018-08-30T04:03:39.722Z,100.00
2018-08-30T04:06:07.881Z,100.00
2018-08-30T04:08:36.045Z,100.00
2018-08-30T04:11:04.205Z,100.00
2018-08-30T04:13:32.412Z,100.00
2018-08-30T04:16:00.513Z,100.00
2018-08-30T04:18:28.648Z,100.00
2018-08-30T04:20:56.842Z,100.00
2018-08-30T04:23:24.980Z,100.00
2018-08-30T04:25:53.133Z,100.00
2018-08-30T04:28:21.229Z,100.00
2018-08-30T04:30:49.413Z,100.00
2018-08-30T04:33:17.607Z,100.00
2018-08-30T04:35:45.757Z,100.00
2018-08-30T04:38:13.897Z,100.00
2018-08-30T04:40:42.048Z,100.00
2018-08-30T04:43:10.824Z,100.00
2018-08-30T04:45:39.012Z,100.00
2018-08-30T04:48:07.138Z,100.00
2018-08-30T04:50:35.321Z,100.00
2018-08-30T04:53:03.448Z,100.00
2018-08-30T04:55:31.558Z,100.00
2018-08-30T04:57:59.720Z,100.00
2018-08-30T05:00:27.901Z,100.00
2018-08-30T05:02:56.001Z,100.00
2018-08-30T05:05:24.134Z,100.00
2018-08-30T05:07:52.305Z,100.00
2018-08-30T05:10:20.481Z,100.00
2018-08-30T05:12:48.659Z,100.00
2018-08-30T05:15:16.785Z,100.00
2018-08-30T05:17:44.953Z,100.00
2018-08-30T05:20:13.115Z,100.00
2018-08-30T05:22:41.252Z,100.00
2018-08-30T05:25:09.394Z,100.00
2018-08-30T05:27:37.608Z,100.00
2018-08-30T05:30:05.761Z,100.00
2018-08-30T05:32:34.597Z,100.00
2018-08-30T05:35:02.775Z,100.00
2018-08-30T05:37:31.020Z,100.00
2018-08-30T05:39:59.217Z,100.00
2018-08-30T05:42:27.338Z,100.00
2018-08-30T05:44:55.491Z,100.00
2018-08-30T05:47:23.611Z,100.00
2018-08-30T05:49:51.745Z,100.00
2018-08-30T05:52:19.893Z,100.00
2018-08-30T05:54:49.111Z,100.00
2018-08-30T05:57:17.206Z,100.00
2018-08-30T05:59:45.337Z,100.00
2018-08-30T06:02:13.500Z,100.00
2018-08-30T06:04:41.650Z,100.00
2018-08-30T06:07:09.842Z,100.00
2018-08-30T06:09:37.975Z,100.00
2018-08-30T06:12:06.175Z,100.00
2018-08-30T06:14:34.325Z,100.00
2018-08-30T06:17:02.493Z,100.00
2018-08-30T06:19:30.683Z,100.00
2018-08-30T06:21:58.833Z,100.00
2018-08-30T06:24:26.984Z,100.00
2018-08-30T06:26:55.249Z,100.00
2018-08-30T06:29:23.359Z,100.00
2018-08-30T06:31:51.640Z,100.00
2018-08-30T06:34:19.797Z,100.00
2018-08-30T06:36:48.009Z,100.00
2018-08-30T06:39:16.141Z,100.00
2018-08-30T06:41:44.295Z,100.00
2018-08-30T06:44:12.539Z,100.00
2018-08-30T06:46:40.754Z,100.00
2018-08-30T06:49:08.893Z,100.00
2018-08-30T06:51:37.053Z,100.00
2018-08-30T06:54:05.192Z,100.00
2018-08-30T06:56:33.378Z,100.00
2018-08-30T06:59:01.564Z,100.00
2018-08-30T07:01:29.747Z,100.00
2018-08-30T07:03:57.904Z,100.00
2018-08-30T07:06:26.060Z,100.00
2018-08-30T07:08:54.244Z,100.00
2018-08-30T07:11:22.449Z,100.00
2018-08-30T07:13:50.611Z,100.00
2018-08-30T07:16:18.781Z,100.00
2018-08-30T07:18:46.931Z,100.00
2018-08-30T07:21:15.126Z,100.00
2018-08-30T07:23:43.268Z,100.00
2018-08-30T07:26:11.432Z,100.00
2018-08-30T07:28:39.856Z,100.00
2018-08-30T07:31:07.865Z,100.00
2018-08-30T07:33:36.012Z,100.00
2018-08-30T07:36:04.136Z,100.00
2018-08-30T07:38:32.301Z,100.00
2018-08-30T07:41:00.513Z,100.00
2018-08-30T07:43:28.661Z,100.00
2018-08-30T07:45:56.848Z,100.00
2018-08-30T07:48:25.019Z,100.00
2018-08-30T07:50:53.230Z,100.00
2018-08-30T07:53:21.359Z,100.00
2018-08-30T07:55:49.472Z,100.00
2018-08-30T07:58:17.587Z,100.00
2018-08-30T08:00:48.010Z,100.00
2018-08-30T08:03:16.897Z,100.00
2018-08-30T08:05:45.021Z,100.00
2018-08-30T08:08:13.189Z,100.00
2018-08-30T08:10:41.359Z,100.00
2018-08-30T08:13:09.461Z,100.00
2018-08-30T08:15:37.599Z,100.00
2018-08-30T08:18:05.784Z,100.00
2018-08-30T08:20:33.943Z,100.00
2018-08-30T08:23:02.105Z,100.00
2018-08-30T08:25:30.331Z,100.00
2018-08-30T08:27:58.701Z,100.00
2018-08-30T08:30:26.877Z,100.00
2018-08-30T08:32:55.009Z,100.00
2018-08-30T08:35:23.230Z,100.00
2018-08-30T08:37:51.431Z,100.00
2018-08-30T08:40:19.537Z,100.00
2018-08-30T08:42:47.716Z,100.00
2018-08-30T08:45:15.881Z,100.00
2018-08-30T08:47:44.036Z,100.00
2018-08-30T08:50:12.216Z,100.00
2018-08-30T08:52:40.332Z,100.00
2018-08-30T08:55:08.500Z,100.00
2018-08-30T08:57:36.657Z,100.00
2018-08-30T09:00:04.921Z,100.00
2018-08-30T09:02:33.050Z,100.00
2018-08-30T09:05:01.177Z,100.00
2018-08-30T09:07:30.192Z,100.00
2018-08-30T09:09:58.275Z,100.00
2018-08-30T09:12:26.415Z,100.00
2018-08-30T09:14:54.554Z,100.00
2018-08-30T09:17:22.661Z,100.00
2018-08-30T09:19:50.807Z,100.00
2018-08-30T09:22:18.982Z,100.00
2018-08-30T09:24:47.110Z,100.00
2018-08-30T09:27:15.267Z,100.00
2018-08-30T09:29:43.403Z,100.00
2018-08-30T09:32:11.551Z,100.00
2018-08-30T09:34:39.726Z,100.00
2018-08-30T09:37:07.900Z,100.00
2018-08-30T09:39:36.111Z,100.00
2018-08-30T09:42:04.370Z,100.00
2018-08-30T09:44:32.516Z,100.00
2018-08-30T09:47:00.714Z,100.00
2018-08-30T09:49:28.960Z,100.00
2018-08-30T09:51:57.036Z,100.00
2018-08-30T09:54:25.183Z,100.00
2018-08-30T09:56:53.346Z,100.00
2018-08-30T09:59:21.476Z,100.00
2018-08-30T10:01:50.822Z,100.00
2018-08-30T10:04:20.064Z,100.00
2018-08-30T10:06:48.222Z,100.00
2018-08-30T10:09:16.372Z,100.00
2018-08-30T10:11:44.496Z,100.00
2018-08-30T10:14:12.700Z,100.00
2018-08-30T10:16:40.869Z,100.00
2018-08-30T10:19:08.989Z,100.00
2018-08-30T10:21:37.214Z,100.00
2018-08-30T10:24:05.357Z,100.00
2018-08-30T10:26:33.527Z,100.00
2018-08-30T10:29:01.688Z,100.00
2018-08-30T10:31:29.919Z,100.00
2018-08-30T10:33:58.068Z,100.00
2018-08-30T10:36:26.221Z,100.00
2018-08-30T10:38:54.410Z,100.00
2018-08-30T10:41:22.556Z,100.00
2018-08-30T10:43:50.776Z,100.00
2018-08-30T10:46:18.927Z,100.00
2018-08-30T10:48:47.088Z,100.00
2018-08-30T10:51:15.279Z,100.00
2018-08-30T10:53:44.364Z,100.00
2018-08-30T10:56:13.121Z,100.00
2018-08-30T10:58:41.278Z,100.00
2018-08-30T11:01:10.434Z,100.00
2018-08-30T11:03:39.381Z,100.00
2018-08-30T11:06:07.536Z,100.00
2018-08-30T11:08:35.694Z,100.00
2018-08-30T11:11:03.849Z,100.00
2018-08-30T11:13:31.995Z,100.00
2018-08-30T11:16:00.156Z,100.00
2018-08-30T11:18:28.276Z,100.00
2018-08-30T11:20:56.464Z,100.00
2018-08-30T11:23:24.588Z,100.00
2018-08-30T11:25:52.777Z,100.00
2018-08-30T11:28:20.928Z,100.00
2018-08-30T11:30:49.096Z,100.00
2018-08-30T11:33:17.220Z,100.00
2018-08-30T11:35:45.427Z,100.00
2018-08-30T11:38:13.583Z,100.00
2018-08-30T11:40:41.786Z,100.00
2018-08-30T11:43:09.967Z,100.00
2018-08-30T11:45:38.121Z,100.00
2018-08-30T11:48:06.302Z,100.00
2018-08-30T11:50:34.487Z,100.00
2018-08-30T11:53:02.613Z,100.00
2018-08-30T11:55:30.765Z,100.00
2018-08-30T11:57:58.915Z,100.00
2018-08-30T12:00:27.186Z,100.00
2018-08-30T12:02:57.048Z,100.00
2018-08-30T12:05:25.220Z,100.00
2018-08-30T12:07:53.408Z,100.00
2018-08-30T12:10:21.561Z,100.00
2018-08-30T12:12:49.741Z,100.00
2018-08-30T12:15:17.900Z,100.00
2018-08-30T12:17:46.064Z,100.00
2018-08-30T12:20:14.188Z,100.00
2018-08-30T12:22:42.341Z,100.00
2018-08-30T12:25:10.520Z,100.00
2018-08-30T12:27:38.646Z,100.00
2018-08-30T12:30:06.909Z,100.00
2018-08-30T12:32:35.083Z,100.00
2018-08-30T12:35:03.227Z,100.00
2018-08-30T12:37:31.272Z,100.00
2018-08-30T12:39:59.559Z,100.00
2018-08-30T12:42:27.694Z,100.00
2018-08-30T12:44:55.750Z,100.00
2018-08-30T12:47:24.141Z,100.00
2018-08-30T12:49:52.351Z,100.00
2018-08-30T12:52:20.529Z,100.00
2018-08-30T12:54:48.775Z,100.00
2018-08-30T12:57:16.974Z,100.00
2018-08-30T12:59:45.475Z,100.00
2018-08-30T13:02:14.527Z,100.00
2018-08-30T13:04:42.758Z,100.00
2018-08-30T13:07:10.803Z,100.00
2018-08-30T13:09:39.083Z,100.00
2018-08-30T13:12:07.717Z,100.00
2018-08-30T13:14:36.102Z,100.00
2018-08-30T13:17:04.381Z,100.00
2018-08-30T13:19:32.798Z,100.00
2018-08-30T13:22:01.067Z,100.00
2018-08-30T13:24:29.152Z,100.00
2018-08-30T13:26:57.177Z,100.00
2018-08-30T13:29:25.450Z,100.00
2018-08-30T13:31:53.608Z,100.00
2018-08-30T13:34:21.965Z,100.00
2018-08-30T13:36:50.290Z,100.00
2018-08-30T13:39:18.404Z,100.00
2018-08-30T13:41:46.519Z,100.00
2018-08-30T13:44:14.667Z,100.00
2018-08-30T13:46:43.269Z,100.00
2018-08-30T13:49:12.255Z,100.00
2018-08-30T13:51:40.556Z,100.00
2018-08-30T13:54:08.764Z,100.00
2018-08-30T13:56:37.105Z,100.00
2018-08-30T13:59:05.476Z,100.00
2018-08-30T14:01:33.825Z,100.00
2018-08-30T14:04:01.963Z,100.00
2018-08-30T14:06:30.163Z,100.00
2018-08-30T14:08:58.613Z,100.00
2018-08-30T14:11:27.265Z,100.00
2018-08-30T14:13:55.632Z,100.00
2018-08-30T14:16:23.517Z,100.00
2018-08-30T14:18:51.838Z,100.00
2018-08-30T14:21:20.048Z,100.00
2018-08-30T14:23:48.251Z,100.00
2018-08-30T14:26:16.427Z,100.00
2018-08-30T14:28:44.647Z,100.00
2018-08-30T14:31:12.845Z,100.00
2018-08-30T14:33:41.968Z,100.00
2018-08-30T14:36:10.448Z,100.00
2018-08-30T14:38:38.744Z,100.00
2018-08-30T14:41:07.105Z,100.00
2018-08-30T14:43:36.083Z,100.00
2018-08-30T14:46:04.270Z,100.00
2018-08-30T14:48:32.444Z,100.00
2018-08-30T14:51:00.813Z,100.00
2018-08-30T14:53:29.049Z,100.00
2018-08-30T14:55:57.064Z,100.00
2018-08-30T14:58:25.220Z,100.00
2018-08-30T15:00:53.397Z,100.00
2018-08-30T15:03:21.732Z,100.00
2018-08-30T15:05:50.005Z,100.00
2018-08-30T15:08:18.099Z,100.00
2018-08-30T15:10:46.535Z,100.00
2018-08-30T15:13:14.780Z,100.00
2018-08-30T15:15:42.960Z,100.00
2018-08-30T15:18:16.967Z,100.00
2018-08-30T15:23:51.012Z,100.00
2018-08-30T15:26:24.887Z,100.00
2018-08-30T15:28:59.686Z,100.00
2018-08-30T15:31:43.791Z,100.00
2018-08-30T15:34:18.676Z,100.00
2018-08-30T15:36:58.636Z,100.00
2018-08-30T15:39:32.233Z,100.00
2018-08-30T15:42:10.828Z,100.00
2018-08-30T15:44:59.553Z,100.00
2018-08-30T15:47:28.755Z,100.00
2018-08-30T15:49:56.752Z,100.00
2018-08-30T15:52:24.919Z,100.00
2018-08-30T15:54:53.113Z,100.00
2018-08-30T15:57:21.457Z,100.00
2018-08-30T15:59:49.405Z,100.00
2018-08-30T16:02:17.639Z,100.00
2018-08-30T16:04:45.841Z,100.00
2018-08-30T16:07:14.022Z,100.00
2018-08-30T16:09:43.013Z,100.00
2018-08-30T16:12:11.178Z,99.23
2018-08-30T16:14:39.288Z,99.56
2018-08-30T16:17:07.556Z,99.36
2018-08-30T16:19:35.701Z,98.42
2018-08-30T16:22:03.912Z,98.65
2018-08-30T16:24:32.067Z,98.48
2018-08-30T16:27:00.153Z,97.89
2018-08-30T16:29:28.296Z,96.80
2018-08-30T16:31:56.424Z,96.58
2018-08-30T16:34:24.576Z,95.83
2018-08-30T16:36:52.712Z,97.54
2018-08-30T16:39:20.849Z,96.48
2018-08-30T16:41:48.985Z,96.42
2018-08-30T16:44:17.123Z,94.80
2018-08-30T16:46:45.341Z,94.55
2018-08-30T16:49:13.461Z,93.77
2018-08-30T16:51:41.611Z,93.24
2018-08-30T16:54:09.729Z,92.77
2018-08-30T16:56:37.888Z,92.91
2018-08-30T16:59:06.145Z,92.72
2018-08-30T17:01:34.220Z,94.47
2018-08-30T17:04:02.392Z,94.05
2018-08-30T17:06:30.630Z,95.61
2018-08-30T17:08:58.704Z,93.20
2018-08-30T17:11:37.977Z,92.30
2018-08-30T17:14:19.964Z,92.21
2018-08-30T17:17:01.545Z,91.48
2018-08-30T17:19:42.614Z,89.05
2018-08-30T17:22:11.548Z,89.89
2018-08-30T17:24:39.730Z,89.06
2018-08-30T17:27:08.240Z,89.98
2018-08-30T17:29:36.378Z,88.36
2018-08-30T17:32:04.496Z,90.40
2018-08-30T17:34:32.633Z,90.51
2018-08-30T17:37:00.782Z,90.53
2018-08-30T17:39:28.835Z,90.34
2018-08-30T17:41:56.984Z,89.17
2018-08-30T17:44:25.110Z,90.33
2018-08-30T17:46:53.265Z,89.81
2018-08-30T17:49:21.413Z,91.04
2018-08-30T17:51:49.541Z,90.65
2018-08-30T17:54:17.786Z,90.57
2018-08-30T17:56:45.960Z,90.38
2018-08-30T17:59:14.112Z,90.36
2018-08-30T18:01:42.252Z,89.49
2018-08-30T18:04:10.391Z,90.30
2018-08-30T18:06:38.704Z,90.55
2018-08-30T18:09:07.353Z,90.54
2018-08-30T18:11:35.633Z,91.46
2018-08-30T18:14:03.778Z,90.06
2018-08-30T18:16:32.482Z,88.76
2018-08-30T18:19:00.695Z,89.17
2018-08-30T18:21:28.805Z,89.99
2018-08-30T18:23:57.353Z,90.42
2018-08-30T18:26:25.525Z,90.05
2018-08-30T18:28:53.655Z,89.20
2018-08-30T18:31:21.884Z,91.42
2018-08-30T18:33:49.986Z,89.01
2018-08-30T18:36:18.236Z,92.02
2018-08-30T18:38:46.376Z,91.00
2018-08-30T18:41:14.541Z,90.66
2018-08-30T18:43:43.601Z,91.87
2018-08-30T18:46:11.796Z,91.31
2018-08-30T18:48:39.960Z,91.09
2018-08-30T18:51:08.128Z,91.59
2018-08-30T18:53:36.311Z,92.32
2018-08-30T18:56:04.481Z,91.21
2018-08-30T18:58:32.596Z,90.11
2018-08-30T19:01:00.771Z,90.76
2018-08-30T19:03:28.866Z,91.17
2018-08-30T19:05:57.663Z,91.87
2018-08-30T19:08:25.844Z,90.90
2018-08-30T19:10:53.954Z,90.34
2018-08-30T19:13:22.109Z,92.84
2018-08-30T19:15:55.530Z,92.02
2018-08-30T19:18:29.137Z,91.19
2018-08-30T19:20:57.598Z,91.04
2018-08-30T19:23:25.732Z,89.93
2018-08-30T19:25:53.856Z,89.76
2018-08-30T19:28:21.988Z,91.46
2018-08-30T19:30:50.232Z,92.42
2018-08-30T19:33:18.340Z,91.27
2018-08-30T19:35:51.821Z,92.57
2018-08-30T19:38:20.039Z,92.86
2018-08-30T19:40:53.610Z,92.28
2018-08-30T19:43:21.802Z,92.28
2018-08-30T19:45:49.955Z,92.05
2018-08-30T19:48:18.068Z,92.46
2018-08-30T19:50:46.169Z,92.41
2018-08-30T19:53:14.310Z,93.92
2018-08-30T19:55:42.789Z,91.77
2018-08-30T19:58:10.887Z,92.84
2018-08-30T20:00:39.000Z,93.27
2018-08-30T20:03:07.152Z,92.14
2018-08-30T20:05:35.342Z,92.41
2018-08-30T20:08:03.492Z,92.46
2018-08-30T20:10:31.701Z,91.87
2018-08-30T20:12:59.848Z,91.29
2018-08-30T20:15:28.045Z,91.57
2018-08-30T20:17:56.211Z,93.26
2018-08-30T20:20:24.413Z,92.54
2018-08-30T20:22:52.563Z,93.09
2018-08-30T20:25:20.741Z,93.26
2018-08-30T20:27:49.000Z,92.40
2018-08-30T20:30:17.127Z,92.98
2018-08-30T20:32:45.254Z,93.53
2018-08-30T20:35:13.416Z,91.51
2018-08-30T20:37:41.542Z,93.44
2018-08-30T20:40:09.723Z,93.80
2018-08-30T20:42:37.894Z,92.92
2018-08-30T20:45:06.060Z,92.05
2018-08-30T20:47:34.214Z,94.07
2018-08-30T20:50:02.387Z,93.52
2018-08-30T20:52:30.550Z,92.56
2018-08-30T20:54:58.699Z,92.79
2018-08-30T20:57:26.824Z,93.75
2018-08-30T20:59:55.028Z,93.40
2018-08-30T21:02:23.237Z,92.76
2018-08-30T21:04:51.462Z,94.20
2018-08-30T21:07:19.613Z,92.73
2018-08-30T21:09:47.810Z,93.25
2018-08-30T21:12:15.972Z,92.27
2018-08-30T21:14:44.132Z,92.29
2018-08-30T21:17:12.285Z,92.23
2018-08-30T21:19:40.853Z,93.34
2018-08-30T21:22:09.080Z,93.17
2018-08-30T21:24:37.277Z,93.97
2018-08-30T21:27:05.557Z,93.91
2018-08-30T21:29:33.702Z,93.57
2018-08-30T21:32:01.856Z,95.21
2018-08-30T21:34:29.976Z,94.33
2018-08-30T21:36:58.117Z,93.48
2018-08-30T21:39:26.330Z,93.38
2018-08-30T21:41:54.476Z,94.46
2018-08-30T21:44:22.609Z,94.15
2018-08-30T21:46:50.768Z,94.73
2018-08-30T21:49:18.915Z,94.30
2018-08-30T21:51:47.092Z,95.67
2018-08-30T21:54:15.229Z,95.04
2018-08-30T21:56:43.392Z,94.09
2018-08-30T21:59:11.583Z,94.48
2018-08-30T22:01:39.749Z,95.55
2018-08-30T22:04:07.944Z,96.02
2018-08-30T22:06:36.106Z,95.89
2018-08-30T22:09:05.957Z,96.29
2018-08-30T22:11:34.093Z,96.66
2018-08-30T22:14:02.325Z,96.19
2018-08-30T22:16:30.452Z,95.27
2018-08-30T22:18:58.597Z,96.13
2018-08-30T22:21:26.738Z,96.53
2018-08-30T22:23:54.910Z,95.59
2018-08-30T22:26:23.065Z,96.28
2018-08-30T22:28:51.234Z,95.69
2018-08-30T22:31:19.372Z,97.16
2018-08-30T22:33:47.593Z,95.77
2018-08-30T22:36:15.792Z,95.97
2018-08-30T22:38:43.948Z,96.48
2018-08-30T22:41:12.122Z,97.82
2018-08-30T22:43:40.597Z,96.18
2018-08-30T22:46:08.847Z,96.45
2018-08-30T22:48:37.045Z,96.91
2018-08-30T22:51:05.272Z,97.96
2018-08-30T22:53:33.460Z,97.42
2018-08-30T22:56:01.973Z,97.64
2018-08-30T22:58:30.708Z,97.55
2018-08-30T23:00:58.907Z,96.16
2018-08-30T23:03:27.210Z,97.08
2018-08-30T23:05:55.447Z,96.75
2018-08-30T23:08:23.633Z,96.30
2018-08-30T23:10:53.233Z,96.58
2018-08-30T23:13:21.361Z,97.82
2018-08-30T23:15:49.598Z,97.47
2018-08-30T23:18:17.766Z,98.04
2018-08-30T23:20:45.936Z,97.08
2018-08-30T23:23:14.081Z,97.78
2018-08-30T23:25:42.243Z,97.31
2018-08-30T23:28:10.401Z,98.41
2018-08-30T23:30:38.678Z,98.55
2018-08-30T23:33:06.826Z,97.43
2018-08-30T23:35:34.981Z,97.91
2018-08-30T23:38:03.124Z,98.03
2018-08-30T23:40:31.300Z,98.11
2018-08-30T23:42:59.522Z,98.19
2018-08-30T23:45:27.681Z,97.44
2018-08-30T23:47:55.851Z,98.16
2018-08-30T23:50:24.020Z,98.25
2018-08-30T23:52:52.198Z,98.26
2018-08-30T23:55:20.413Z,98.60
2018-08-30T23:57:59.761Z,99.02
